• Join FlightAware (Why Join?)
  • Login
  • US Flag 
01:45PM EDT


 

Airport Tracker/Info


-or-


 

Live Flight TrackerFlight Track Log ✈ AAL1686 ✈ 25-Jun-2013 ✈ KLAX - KSTL

Flight Track Log - Related Links

Times and Time Zones

All times are in EDT time to prevent confusion due to time zone crossing. See the AAL1686 flight status page for this flight to view local times or setup timezone preferences in your user account.

Time Position Orientation Groundspeed Altitude Reporting Facility
EDT Latitude Longitude Course Direction KTS MPH feet Rate Location/Type
07:36PM 33.9333 -118.4500 55° Northeast 175 201 2,000  Level Southern California TRACON
07:37PM 33.9019 -118.5406 247° West 222 255 4,700 1,920 Climbing Los Angeles Center
07:38PM 34.1263 -118.0807 59° Northeast  Level FlightAware Approximate
07:38PM 33.8553 -118.5969 225° Southwest 264 304 6,700  Level Los Angeles Center
07:39PM 34.1921 -117.9491 59° Northeast  Level FlightAware Approximate
07:39PM 33.8056 -118.5281 131° Southeast 302 348 9,000  Level Los Angeles Center
07:40PM 34.2616 -117.8320 68° East  Level FlightAware Approximate
07:40PM 33.8711 -118.4683 37° Northeast 307 353 11,000  Level Los Angeles Center
07:41PM 34.3279 -117.7055 55° Northeast  Level FlightAware Approximate
07:41PM 33.9528 -118.3972 36° Northeast 368 423 12,200  Level Los Angeles Center
07:42PM 34.0139 -118.2894 56° Northeast 397 457 14,300 1,980 Climbing Los Angeles Center
07:43PM 34.0794 -118.1753 55° Northeast 407 468 16,300 1,920 Climbing Los Angeles Center
07:44PM 34.1461 -118.0569 56° Northeast 422 486 18,300 1,860 Climbing Los Angeles Center
07:45PM 34.2136 -117.9353 56° Northeast 433 498 20,200 1,620 Climbing Los Angeles Center
07:46PM 34.2839 -117.8106 56° Northeast 444 511 21,700 1,560 Climbing Los Angeles Center
07:48PM 34.3686 -117.6581 56° Northeast 454 522 23,500 1,260 Climbing Los Angeles Center
07:49PM 34.4308 -117.5458 56° Northeast 466 536 24,400 1,140 Climbing Los Angeles Center
07:50PM 34.5186 -117.3869 56° Northeast 476 548 25,900 1,440 Climbing Los Angeles Center
07:51PM 34.5925 -117.2519 56° Northeast 482 555 27,400 960 Climbing Los Angeles Center
07:52PM 34.6661 -117.1192 56° Northeast 479 551 28,000 420 Climbing Los Angeles Center
07:53PM 34.7383 -116.9842 57° Northeast 480 552 28,300 840 Climbing Los Angeles Center
07:54PM 34.8117 -116.8508 56° Northeast 478 550 29,800 1,380 Climbing Los Angeles Center
07:55PM 34.8981 -116.6897 57° Northeast 477 549 31,200 1,200 Climbing Los Angeles Center
07:56PM 34.9742 -116.5592 55° Northeast 476 548 32,300 780 Climbing Los Angeles Center
07:57PM 35.0650 -116.4475 45° Northeast 466 536 32,900 300 Climbing Los Angeles Center
07:58PM 35.1539 -116.3356 46° Northeast 463 533 33,000  Climbing Los Angeles Center
07:59PM 35.2456 -116.2219 45° Northeast 467 537 33,000  Level Los Angeles Center
08:00PM 35.3531 -116.0819 47° Northeast 470 541 33,000  Level Los Angeles Center
08:01PM 35.4439 -115.9669 46° Northeast 472 543 33,000  Level Los Angeles Center
08:02PM 35.5406 -115.8528 44° Northeast 474 545 33,100  Climbing Los Angeles Center
08:03PM 35.6294 -115.7375 46° Northeast 467 537 33,000 -60 Descending Los Angeles Center
08:04PM 35.6508 -115.5758 81° East 487 560 33,000 -60 Level Los Angeles Center
08:05PM 35.6922 -115.3881 75° East 481 554 32,900  Descending Los Angeles Center
08:06PM 35.7300 -115.2319 73° East 479 551 33,000  Climbing Los Angeles Center
08:07PM 35.7667 -115.0756 74° East 480 552 33,000  Level Los Angeles Center
08:08PM 35.8014 -114.9158 75° East 483 556 33,000  Level Los Angeles Center
08:09PM 35.8358 -114.7558 75° East 484 557 33,100  Climbing Los Angeles Center
08:10PM 35.8753 -114.5661 76° East 480 552 33,100 -60 Level Los Angeles Center
08:11PM 35.9089 -114.4083 75° East 479 551 33,000 -60 Descending Los Angeles Center
08:12PM 35.9417 -114.2489 76° East 481 554 33,000  Level Los Angeles Center
08:13PM 35.9747 -114.0897 76° East 480 552 33,000  Level Los Angeles Center
08:14PM 36.0078 -113.9297 76° East 481 554 33,000  Level Los Angeles Center
08:15PM 36.0400 -113.7706 76° East 480 552 33,000  Level Los Angeles Center
08:16PM 36.0781 -113.5781 76° East 481 554 33,000  Level Los Angeles Center
08:18PM 36.1111 -113.4183 76° East 481 554 33,000  Level Los Angeles Center
08:19PM 36.1450 -113.2514 76° East 484 557 33,000  Level Los Angeles Center
08:20PM 36.1767 -113.0903 76° East 484 557 33,100  Climbing Los Angeles Center
08:21PM 36.2081 -112.9289 76° East 485 558 33,100  Level Los Angeles Center
08:22PM 36.2400 -112.7681 76° East 484 557 33,100 -60 Level Los Angeles Center
08:23PM 36.2706 -112.6069 77° East 483 556 33,000 -60 Descending Los Angeles Center
08:24PM 36.3081 -112.4142 76° East 482 555 33,000  Level Los Angeles Center
08:25PM 36.3386 -112.2531 77° East 483 556 33,000  Level Los Angeles Center
08:26PM 36.3694 -112.0908 77° East 484 557 33,000  Level Los Angeles Center
08:27PM 36.3989 -111.9303 77° East 482 555 33,000  Level Los Angeles Center
08:28PM 36.4300 -111.7686 77° East 486 559 33,100  Climbing Denver Center
08:29PM 36.4586 -111.6061 78° East 485 558 33,100  Level Denver Center
08:30PM 36.4883 -111.4436 77° East 485 558 33,100 -60 Level Denver Center
08:31PM 36.5186 -111.2817 77° East 483 556 33,000 -60 Descending Denver Center
08:32PM 36.5475 -111.1194 77° East 482 555 33,000 -60 Level Denver Center
08:33PM 36.5894 -110.8931 77° East 482 555 32,900  Descending Denver Center
08:34PM 36.6183 -110.7294 78° East 485 558 33,000 60 Climbing Denver Center
08:35PM 36.6444 -110.5672 79° East 483 556 33,100  Climbing Denver Center
08:36PM 36.6708 -110.4044 79° East 482 555 33,100 -60 Level Denver Center
08:37PM 36.7003 -110.2408 77° East 485 558 33,000 -60 Descending Denver Center
08:38PM 36.7306 -110.0664 78° East 480 552 33,000 -60 Level Denver Center
08:39PM 36.7558 -109.9114 78° East 477 549 32,900  Descending Denver Center
08:40PM 36.7908 -109.7028 78° East 479 551 33,000 60 Climbing Denver Center
08:42PM 36.8203 -109.5186 79° East 482 555 33,100  Climbing Denver Center
08:43PM 36.8475 -109.3614 78° East 484 557 33,100 -60 Level Denver Center
08:44PM 36.8728 -109.2036 79° East 483 556 33,000 -60 Descending Denver Center
08:45PM 36.9019 -109.0186 79° East 484 557 33,000  Level Denver Center
08:46PM 36.9269 -108.8614 79° East 483 556 33,000  Level Denver Center
08:47PM 36.9558 -108.6772 79° East 481 554 33,000  Level Denver Center
08:48PM 36.9806 -108.5181 79° East 484 557 33,000  Level Denver Center
08:49PM 37.0053 -108.3606 79° East 483 556 33,100  Climbing Denver Center
08:50PM 37.0331 -108.1758 79° East 482 555 33,100 -60 Level Denver Center
08:51PM 37.0569 -108.0178 79° East 483 556 33,000 -60 Descending Denver Center
08:52PM 37.0850 -107.8331 79° East 482 555 33,000  Level Denver Center
08:53PM 37.1039 -107.7011 80° East 483 556 33,000  Level Denver Center
08:54PM 37.1314 -107.5164 79° East 482 555 33,000  Level Denver Center
08:55PM 37.1581 -107.3297 80° East 486 559 33,000  Level Denver Center
08:56PM 37.1881 -107.1169 80° East 486 559 33,100  Climbing Denver Center
08:57PM 37.2108 -106.9569 80° East 486 559 33,100 -60 Level Denver Center
08:58PM 37.2339 -106.7969 80° East 488 562 33,000 -60 Descending Denver Center
08:59PM 37.2608 -106.6108 80° East 486 559 33,000  Level Denver Center
09:00PM 37.2822 -106.4519 80° East 484 557 33,000  Level Denver Center
09:01PM 37.3075 -106.2669 80° East 481 554 33,000  Level Denver Center
09:02PM 37.3269 -106.1078 81° East 483 556 33,000  Level Denver Center
09:03PM 37.3525 -105.9219 80° East 483 556 33,000  Level Denver Center
09:04PM 37.3728 -105.7617 81° East 485 558 33,000  Level Denver Center
09:05PM 37.3936 -105.5997 81° East 489 563 33,100  Climbing Denver Center
09:06PM 37.4194 -105.4125 80° East 487 560 33,100 360 Level Denver Center
09:07PM 37.4386 -105.2508 81° East 487 560 33,900 840 Climbing Denver Center
09:08PM 37.4625 -105.0739 80° East 485 558 34,900 480 Climbing Denver Center
09:09PM 37.4819 -104.9144 81° East 482 555 35,000  Climbing Denver Center
09:10PM 37.5042 -104.7281 81° East 481 554 35,000  Level Denver Center
09:12PM 37.5239 -104.5694 81° East 480 552 35,000  Level Denver Center
09:13PM 37.5447 -104.3844 82° East 478 550 35,000  Level Denver Center
09:14PM 37.5633 -104.2272 81° East 475 547 35,000  Level Denver Center
09:15PM 37.5836 -104.0525 82° East 471 542 35,000  Level Denver Center
09:16PM 37.6078 -103.8500 81° East 473 544 35,000  Level Denver Center
09:17PM 37.6244 -103.6947 82° East 468 539 35,000  Level Denver Center
09:18PM 37.6450 -103.5108 82° East 473 544 35,000  Level Denver Center
09:19PM 37.6628 -103.3528 82° East 474 545 35,000  Level Denver Center
09:20PM 37.6797 -103.1947 82° East 474 545 35,000  Level Denver Center
09:21PM 37.6986 -103.0144 82° East 467 537 35,000  Level Denver Center
09:22PM 37.7153 -102.8572 82° East 470 541 35,000  Level Denver Center
09:23PM 37.7344 -102.6744 82° East 471 542 35,000  Level Denver Center
09:24PM 37.7500 -102.5178 83° East 470 541 35,000  Level Denver Center
09:25PM 37.7703 -102.3336 82° East 473 544 35,000  Level Denver Center
09:26PM 37.7856 -102.1769 83° East 471 542 35,000  Level Denver Center
09:27PM 37.8003 -102.0206 83° East 469 540 35,000  Level Denver Center
09:28PM 37.8183 -101.8392 83° East 466 536 35,000  Level Denver Center
09:29PM 37.8356 -101.6864 82° East 461 531 35,000  Level Denver Center
09:30PM 37.8664 -101.5100 77° East 459 528 35,000  Level Denver Center
09:31PM 37.8978 -101.3308 77° East 464 534 35,000  Level Denver Center
09:32PM 37.9306 -101.1533 77° East 461 531 35,000  Level Kansas City Center
09:33PM 37.9600 -101.0006 76° East 462 532 35,000  Level Kansas City Center
09:34PM 37.9889 -100.8478 76° East 462 532 35,000  Level Kansas City Center
09:36PM 38.0139 -100.6681 80° East 460 529 35,000  Level Kansas City Center
09:37PM 38.0406 -100.5156 77° East 461 531 35,000  Level Kansas City Center
09:38PM 38.0683 -100.3639 77° East 460 529 35,000  Level Kansas City Center
09:39PM 38.0983 -100.1839 78° East 465 535 35,000  Level Kansas City Center
09:40PM 38.1283 -100.0311 76° East 466 536 35,000  Level Kansas City Center
09:41PM 38.1542 -99.8528 80° East 461 531 35,000  Level Kansas City Center
09:42PM 38.1656 -99.6969 85° East 461 531 35,000  Level Kansas City Center
09:43PM 38.1789 -99.5158 85° East 461 531 35,000  Level Kansas City Center
09:44PM 38.1889 -99.3692 85° East 459 528 35,000  Level Kansas City Center
09:45PM 38.2019 -99.2050 84° East 465 535 35,000  Level Kansas City Center
09:46PM 38.2128 -99.0406 85° East 466 536 35,000  Level Kansas City Center
09:47PM 38.2247 -98.8744 85° East 470 541 35,000  Level Kansas City Center
09:48PM 38.2375 -98.7103 84° East 466 536 35,000  Level Kansas City Center
09:49PM 38.2494 -98.5172 85° East 456 525 35,000  Level Kansas City Center
09:50PM 38.2603 -98.3547 85° East 459 528 35,000  Level Kansas City Center
09:51PM 38.2703 -98.1906 86° East 461 531 35,000  Level Kansas City Center
09:52PM 38.2808 -98.0244 85° East 466 536 35,000  Level Kansas City Center
09:53PM 38.2908 -97.8581 86° East 468 539 35,000  Level Kansas City Center
09:54PM 38.2914 -97.6908 90° East 470 541 35,000  Level Kansas City Center
09:55PM 38.3117 -97.5261 81° East 470 541 35,000  Level Kansas City Center
09:56PM 38.3256 -97.3617 84° East 466 536 35,000  Level Kansas City Center
09:57PM 38.3414 -97.1964 83° East 468 539 35,000  Level Kansas City Center
09:58PM 38.3553 -97.0328 84° East 465 535 35,000  Level Kansas City Center
09:59PM 38.3728 -96.8322 84° East 474 545 35,000  Level Kansas City Center
10:00PM 38.3867 -96.6667 84° East 470 541 35,000  Level Kansas City Center
10:01PM 38.4003 -96.4997 84° East 473 544 35,000  Level Kansas City Center
10:02PM 38.4142 -96.3239 84° East 466 536 35,000  Level Kansas City Center
10:03PM 38.4261 -96.1658 84° East 467 537 35,000  Level Kansas City Center
10:04PM 38.4411 -95.9817 84° East 469 540 35,000  Level Kansas City Center
10:05PM 38.4522 -95.8231 85° East 470 541 35,000  Level Kansas City Center
10:06PM 38.4647 -95.6656 84° East 469 540 35,000  Level Kansas City Center
10:07PM 38.4778 -95.4772 85° East 478 550 35,000  Level Kansas City Center
10:08PM 38.4897 -95.3183 84° East 472 543 35,000  Level Kansas City Center
10:09PM 38.5031 -95.1333 85° East 472 543 35,000  Level Kansas City Center
10:10PM 38.5147 -94.9747 85° East 472 543 35,000  Level Kansas City Center
10:12PM 38.5272 -94.7892 85° East 472 543 35,000  Level Kansas City Center
10:13PM 38.5372 -94.6292 85° East 474 545 35,000 -60 Level Kansas City Center
10:14PM 38.5503 -94.4425 85° East 475 547 34,900 -540 Descending Kansas City Center
10:15PM 38.5592 -94.2822 86° East 474 545 33,900 -1,080 Descending Kansas City Center
10:16PM 38.5711 -94.0942 85° East 477 549 32,800 -1,020 Descending Kansas City Center
10:17PM 38.5811 -93.9311 85° East 480 552 31,900 -1,020 Descending Kansas City Center
10:18PM 38.5925 -93.7411 86° East 481 554 30,800 -1,020 Descending Kansas City Center
10:19PM 38.6017 -93.5867 86° East 485 558 29,900 -840 Descending Kansas City Center
10:20PM 38.6125 -93.4128 85° East 489 563 29,100 -480 Descending Kansas City Center
10:21PM 38.6211 -93.2369 86° East 492 566 29,000 -60 Descending Kansas City Center
10:22PM 38.6325 -93.0269 86° East 492 566 29,000  Level Kansas City Center
10:23PM 38.6408 -92.8508 86° East 492 566 29,000  Level Kansas City Center
10:24PM 38.6508 -92.6733 86° East 495 570 29,000 -120 Level Kansas City Center
10:25PM 38.6586 -92.4958 87° East 497 572 28,800 -1,380 Descending Kansas City Center
10:26PM 38.6661 -92.3183 87° East 496 571 26,200 -2,520 Descending Kansas City Center
10:27PM 38.6742 -92.1486 86° East 482 555 23,700 -2,520 Descending Kansas City Center
10:28PM 38.6794 -91.9842 88° East 466 536 21,000 -2,640 Descending Kansas City Center
10:29PM 38.6861 -91.8247 87° East 453 521 18,400 -2,580 Descending Kansas City Center
10:30PM 38.6914 -91.6717 87° East 436 502 15,800 -2,760 Descending Kansas City Center
10:31PM 38.6911 -91.4944 90° East 417 480 12,800 -2,040 Descending Kansas City Center
10:32PM 38.6919 -91.3622 89° East 411 473 11,700 -900 Descending Kansas City Center
10:33PM 38.6936 -91.2228 89° East 398 458 11,000 -480 Descending Kansas City Center
10:34PM 38.7214 -91.0975 74° East 372 428 10,800 -540 Descending Kansas City Center
10:35PM 38.7492 -90.9900 72° East 330 380 9,900 -1,500 Descending Kansas City Center
10:36PM 38.7786 -90.8644 73° East 309 356 7,800 -1,800 Descending Kansas City Center
10:37PM 38.8025 -90.7603 74° East 306 352 6,300 -1,320 Descending Kansas City Center
10:38PM 38.8356 -90.6656 66° East 296 341 5,100 -1,020 Descending Kansas City Center
10:39PM 38.8733 -90.6031 52° Northeast 258 297 4,200 -960 Descending Kansas City Center
10:40PM 38.8392 -90.5553 133° Southeast 202 232 3,200 -840 Descending Kansas City Center
10:41PM 38.8133 -90.4997 121° Southeast 188 216 2,500 -720 Descending Kansas City Center